hwlogo.jpg (8581 bytes)
Home Your Weather Products Services Weather On Your Site Contact
HW Version Logo
Weather Info
Your Weather (Options)
Canadian Weather
International Weather
Enter your " Place, State", US Zip Code or ICAO:  
Forecast Information Radar Information
Kamloops, British Columbia, Canada  Lat: 50.70N, Lon: 120.45W
ICAO Used: CYKA
Current Conditions
Updated: 9:00 PM PST SUN FEB 18 2018
Sun & Moon Information
Mostly Cloudy
Mostly Cloudy
Temp: -7°C
Humidity: 52%
Wind Speed: W 21 MPH G 26
Barometer: 1020 mb
Dewpoint: -15°C
Heat Index: -7°C
Wind Chill: -16°C
Civil Twilight: 6:35 AM PST Moon Phase:
Waxing Crescent Moon
Sunrise: 7:09 AM PST
Sunset: 5:22 PM PST
Civil Twilight: 5:55 PM PST
Forecast for Kamloops, BC:
(Forecast based on TAF for )
0542 PM PST SUN FEB 18 2018
  
OVERNIGHT MORNING
Mostly
Cloudy
Mostly
Cloudy
ZoneCast:
Dated: 0542 PM PST SUN FEB 18 2018
Overnight...Mostly cloudy with winds from the northwest at 17 mph.

Morning...Mostly cloudy with winds from the northwest at 17 mph.

Original Encoded TAF:
Dated: 0542 PM PST SUN FEB 18 2018
2018/02/19 01:42
TAF CYKA 190038Z 1901/1913 30015KT P6SM FEW060 SCT090 BKN210 
      RMK NXT FCST BY 190700Z